Terminal Aerodrome Forecast
Issued by NWS

Home | Current Version | Previous Version | Text Only | Print | Product List | Glossary On
Versions: 1 2 3 4 5 6 7 8 9 10 11 12 13
335
FTUS45 KRIW 050541
TAFBPI
TAF
KBPI 050541Z 0506/0606 27012G18KT 2SM -SN OVC020 WS018/27050KT
     FM050900 30022G30KT 6SM -SN BLSN SCT020 BKN040
     FM051500 33014G22KT P6SM FEW040
     FM052300 33011KT P6SM SKC=

USA.gov is the U.S. government's official web portal to all federal, state and local government web resources and services.